createdAt,value
2023-05-23T00:01:54.298Z,15.14
2023-05-23T00:06:55.765Z,15.07
2023-05-23T00:11:56.852Z,15.10
2023-05-23T00:16:58.833Z,15.11
2023-05-23T00:21:59.747Z,15.05
2023-05-23T00:27:01.297Z,15.12
2023-05-23T00:32:03.331Z,15.14
2023-05-23T00:37:04.271Z,15.18
2023-05-23T00:42:05.893Z,15.22
2023-05-23T00:47:07.292Z,15.18
2023-05-23T00:52:08.769Z,15.13
2023-05-23T00:57:10.521Z,15.07
2023-05-23T01:02:12.082Z,15.02
2023-05-23T01:07:13.361Z,14.86
2023-05-23T01:12:46.192Z,14.68
2023-05-23T01:20:55.200Z,14.59
2023-05-23T01:29:09.661Z,14.44
2023-05-23T01:34:12.900Z,14.19
2023-05-23T01:39:13.845Z,14.11
2023-05-23T01:44:15.412Z,14.16
2023-05-23T01:49:17.950Z,13.93
2023-05-23T01:54:19.188Z,13.86
2023-05-23T01:59:20.365Z,13.69
2023-05-23T02:04:21.352Z,13.69
2023-05-23T02:09:22.292Z,13.67
2023-05-23T02:14:23.206Z,13.62
2023-05-23T02:19:24.101Z,13.57
2023-05-23T02:24:25.196Z,13.51
2023-05-23T02:29:26.064Z,13.42
2023-05-23T02:34:26.971Z,13.34
2023-05-23T02:39:28.070Z,13.30
2023-05-23T02:44:29.558Z,13.22
2023-05-23T02:49:31.172Z,13.20
2023-05-23T02:54:31.976Z,13.19
2023-05-23T02:59:33.624Z,13.16
2023-05-23T03:04:34.447Z,13.12
2023-05-23T03:09:35.446Z,13.00
2023-05-23T03:14:36.221Z,12.98
2023-05-23T03:19:37.201Z,13.01
2023-05-23T03:24:38.181Z,13.01
2023-05-23T03:29:39.152Z,12.95
2023-05-23T03:34:39.969Z,12.84
2023-05-23T03:39:40.873Z,12.78
2023-05-23T03:44:41.697Z,12.76
2023-05-23T03:49:44.354Z,12.76
2023-05-23T03:54:45.970Z,12.74
2023-05-23T03:59:46.966Z,12.76
2023-05-23T04:04:48.921Z,12.75
2023-05-23T04:09:50.093Z,12.69
2023-05-23T04:14:52.186Z,12.75
2023-05-23T04:19:53.547Z,12.85
2023-05-23T04:24:54.969Z,13.01
2023-05-23T04:29:57.482Z,13.00
2023-05-23T04:35:01.482Z,12.99
2023-05-23T04:40:03.993Z,12.95
2023-05-23T04:46:26.572Z,13.03
2023-05-23T04:54:05.217Z,13.04
2023-05-23T04:59:08.099Z,13.00
2023-05-23T05:04:09.841Z,13.02
2023-05-23T05:09:10.911Z,12.98
2023-05-23T05:14:12.098Z,12.93
2023-05-23T05:19:13.438Z,12.95
2023-05-23T05:24:15.005Z,13.06
2023-05-23T05:29:16.538Z,12.88
2023-05-23T05:34:18.944Z,13.02
2023-05-23T05:39:20.331Z,13.30
2023-05-23T05:44:22.389Z,13.20
2023-05-23T05:49:24.910Z,13.11
2023-05-23T05:54:25.932Z,13.64
2023-05-23T05:59:27.282Z,13.89
2023-05-23T06:04:29.227Z,13.84
2023-05-23T06:09:31.424Z,13.75
2023-05-23T06:14:32.619Z,13.57
2023-05-23T06:19:34.433Z,13.43
2023-05-23T06:24:35.527Z,13.32
2023-05-23T06:29:38.338Z,13.21
2023-05-23T06:34:39.150Z,13.12
2023-05-23T06:39:40.773Z,13.20
2023-05-23T06:44:41.753Z,13.15
2023-05-23T06:49:45.684Z,13.40
2023-05-23T06:54:46.652Z,13.51
2023-05-23T06:59:48.112Z,13.79
2023-05-23T07:04:49.452Z,14.02
2023-05-23T07:09:54.332Z,14.48
2023-05-23T07:14:56.605Z,14.55
2023-05-23T07:19:59.255Z,14.47
2023-05-23T07:25:01.386Z,14.54
2023-05-23T07:30:09.072Z,14.99
2023-05-23T07:35:10.966Z,14.79
2023-05-23T07:40:11.835Z,14.62
2023-05-23T07:45:13.735Z,14.43
2023-05-23T07:50:16.962Z,14.37
2023-05-23T07:55:18.285Z,14.17
2023-05-23T08:00:20.175Z,14.37
2023-05-23T08:05:23.911Z,14.44
2023-05-23T08:10:28.903Z,14.52
2023-05-23T08:15:36.608Z,14.70
2023-05-23T08:20:43.653Z,14.71
2023-05-23T08:25:44.941Z,14.63
2023-05-23T08:30:46.211Z,14.75
2023-05-23T08:35:47.577Z,14.76
2023-05-23T08:40:53.611Z,14.60
2023-05-23T08:45:56.695Z,14.68
2023-05-23T08:51:02.237Z,14.51
2023-05-23T08:56:03.832Z,14.17
2023-05-23T09:01:13.737Z,14.32
2023-05-23T09:06:17.454Z,14.38
2023-05-23T09:11:21.164Z,14.63
2023-05-23T09:16:22.969Z,14.47
2023-05-23T09:21:31.221Z,14.46
2023-05-23T09:26:49.803Z,14.44
2023-05-23T09:31:51.051Z,14.33
2023-05-23T09:36:54.737Z,14.61
2023-05-23T09:41:58.678Z,14.44
2023-05-23T09:47:06.206Z,14.67
2023-05-23T09:52:07.120Z,14.51
2023-05-23T09:57:10.473Z,14.67
2023-05-23T10:02:12.054Z,14.71
2023-05-23T10:07:15.091Z,14.65
2023-05-23T10:13:40.968Z,14.64
2023-05-23T10:18:51.353Z,14.65
2023-05-23T10:23:52.586Z,14.48
2023-05-23T10:28:54.499Z,13.97
2023-05-23T10:34:07.931Z,13.91
2023-05-23T10:39:16.283Z,13.74
2023-05-23T10:44:28.429Z,13.70
2023-05-23T10:49:51.648Z,13.90
2023-05-23T10:54:54.131Z,14.01
2023-05-23T10:59:56.532Z,13.95
2023-05-23T11:05:21.629Z,14.14
2023-05-23T11:10:22.545Z,14.51
2023-05-23T11:15:23.473Z,14.81
2023-05-23T11:20:26.600Z,15.05
2023-05-23T11:25:52.984Z,15.30
2023-05-23T11:30:56.623Z,15.48
2023-05-23T11:35:57.494Z,15.43
2023-05-23T11:40:59.685Z,15.11
2023-05-23T11:46:08.164Z,14.47
2023-05-23T11:51:09.200Z,14.18
2023-05-23T11:56:10.056Z,14.20
2023-05-23T12:01:12.179Z,14.53
2023-05-23T12:06:18.251Z,14.66
2023-05-23T12:11:19.127Z,14.97
2023-05-23T12:16:20.471Z,14.97
2023-05-23T12:21:25.164Z,14.74
2023-05-23T12:26:26.001Z,14.35
2023-05-23T12:31:27.099Z,14.00
2023-05-23T12:36:31.996Z,13.84
2023-05-23T12:41:33.194Z,13.64
2023-05-23T12:46:34.617Z,13.80
2023-05-23T12:51:35.984Z,13.98
2023-05-23T12:56:36.760Z,14.35
2023-05-23T13:01:37.917Z,14.31
2023-05-23T13:06:38.807Z,14.19
2023-05-23T13:11:40.674Z,13.84
2023-05-23T13:16:41.524Z,13.71
2023-05-23T13:21:42.769Z,13.84
2023-05-23T13:26:43.605Z,14.21
2023-05-23T13:31:44.872Z,14.78
2023-05-23T13:36:45.793Z,15.10
2023-05-23T13:41:46.983Z,15.26
2023-05-23T13:46:47.842Z,15.12
2023-05-23T13:51:49.420Z,15.03
2023-05-23T13:56:50.247Z,15.38
2023-05-23T14:01:51.091Z,15.26
2023-05-23T14:06:52.658Z,15.04
2023-05-23T14:11:53.504Z,14.67
2023-05-23T14:16:54.319Z,14.51
2023-05-23T14:21:55.401Z,14.66
2023-05-23T14:26:56.806Z,15.49
2023-05-23T14:31:59.992Z,15.57
2023-05-23T14:37:00.938Z,15.65
2023-05-23T14:42:02.047Z,16.30
2023-05-23T14:47:03.268Z,16.41
2023-05-23T14:52:04.333Z,15.94
2023-05-23T14:57:05.142Z,15.65
2023-05-23T15:02:07.502Z,15.31
2023-05-23T15:07:08.847Z,15.09
2023-05-23T15:12:09.745Z,15.24
2023-05-23T15:17:12.243Z,15.39
2023-05-23T15:22:25.801Z,15.77
2023-05-23T15:27:37.749Z,16.13
2023-05-23T15:32:38.616Z,16.00
2023-05-23T15:37:40.276Z,15.65
2023-05-23T15:42:41.083Z,15.66
2023-05-23T15:47:42.008Z,16.08
2023-05-23T15:52:42.944Z,15.94
2023-05-23T15:57:43.808Z,15.58
2023-05-23T16:02:44.795Z,15.14
2023-05-23T16:07:45.731Z,15.00
2023-05-23T16:12:46.607Z,15.01
2023-05-23T16:17:47.472Z,14.47
2023-05-23T16:22:48.506Z,14.23
2023-05-23T16:27:49.658Z,14.23
2023-05-23T16:32:50.506Z,14.27
2023-05-23T16:37:51.812Z,14.54
2023-05-23T16:42:52.641Z,14.54
2023-05-23T16:47:53.578Z,14.72
2023-05-23T16:52:54.702Z,14.68
2023-05-23T16:57:55.722Z,14.53
2023-05-23T17:02:56.625Z,14.32
2023-05-23T17:07:57.646Z,14.31
2023-05-23T17:12:58.418Z,14.10
2023-05-23T17:17:59.397Z,13.98
2023-05-23T17:23:00.333Z,13.97
2023-05-23T17:28:01.268Z,13.82
2023-05-23T17:33:02.536Z,13.75
2023-05-23T17:38:03.917Z,13.59
2023-05-23T17:43:04.712Z,13.53
2023-05-23T17:48:05.581Z,13.35
2023-05-23T17:53:07.035Z,13.31
2023-05-23T17:58:08.279Z,13.17
2023-05-23T18:03:09.126Z,12.90
2023-05-23T18:08:10.153Z,12.67
2023-05-23T18:13:11.037Z,12.53
2023-05-23T18:18:12.004Z,12.40
2023-05-23T18:23:13.179Z,12.23
2023-05-23T18:28:13.961Z,12.28
2023-05-23T18:33:15.262Z,12.26
2023-05-23T18:38:16.467Z,12.19
2023-05-23T18:43:17.698Z,12.05
2023-05-23T18:48:19.094Z,11.93
2023-05-23T18:53:20.130Z,11.91
2023-05-23T18:58:20.973Z,11.73
2023-05-23T19:03:21.954Z,11.73
2023-05-23T19:08:22.962Z,11.70
2023-05-23T19:13:23.927Z,11.71
2023-05-23T19:18:25.275Z,11.74
2023-05-23T19:23:27.312Z,11.49
2023-05-23T19:28:28.104Z,11.45
2023-05-23T19:33:28.997Z,11.44
2023-05-23T19:38:29.841Z,11.40
2023-05-23T19:43:30.718Z,11.31
2023-05-23T19:48:31.565Z,11.24
2023-05-23T19:53:32.595Z,11.19
2023-05-23T19:58:35.514Z,11.02
2023-05-23T20:03:36.865Z,10.99
2023-05-23T20:08:37.736Z,10.80
2023-05-23T20:13:38.625Z,10.73
2023-05-23T20:18:41.886Z,10.68
2023-05-23T20:23:44.565Z,10.61
2023-05-23T20:28:45.398Z,10.55
2023-05-23T20:33:46.292Z,10.46
2023-05-23T20:38:47.158Z,10.32
2023-05-23T20:43:48.273Z,10.03
2023-05-23T20:48:49.136Z,9.96
2023-05-23T20:53:50.938Z,9.87
2023-05-23T20:58:51.934Z,9.79
2023-05-23T21:03:53.928Z,9.69
2023-05-23T21:08:54.730Z,9.59
2023-05-23T21:13:56.882Z,9.64
2023-05-23T21:18:57.791Z,9.46
2023-05-23T21:23:58.775Z,9.51
2023-05-23T21:28:59.601Z,9.39
2023-05-23T21:34:11.060Z,9.39
2023-05-23T21:39:19.877Z,9.35
2023-05-23T21:44:20.757Z,9.35
2023-05-23T21:49:21.682Z,9.27
2023-05-23T21:54:22.608Z,9.22
2023-05-23T21:59:23.548Z,9.18
2023-05-23T22:04:24.780Z,9.17
2023-05-23T22:09:25.793Z,9.08
2023-05-23T22:14:26.745Z,9.09
2023-05-23T22:19:28.648Z,9.08
2023-05-23T22:24:30.409Z,9.00
2023-05-23T22:29:31.250Z,8.91
2023-05-23T22:34:32.178Z,8.91
2023-05-23T22:39:33.013Z,8.87
2023-05-23T22:44:33.843Z,8.95
2023-05-23T22:49:35.606Z,8.94
2023-05-23T22:54:36.554Z,8.97
2023-05-23T22:59:37.442Z,9.00
2023-05-23T23:04:40.864Z,8.88
2023-05-23T23:09:41.729Z,8.79
2023-05-23T23:14:42.560Z,8.81
2023-05-23T23:19:43.368Z,8.70
2023-05-23T23:24:46.688Z,8.72
2023-05-23T23:29:47.416Z,8.62
2023-05-23T23:34:48.528Z,8.63
2023-05-23T23:39:49.405Z,8.60
2023-05-23T23:44:50.366Z,8.50
2023-05-23T23:49:51.175Z,8.32
2023-05-23T23:54:52.361Z,8.02
2023-05-23T23:59:53.170Z,8.07
